sensor_id;sensor_type;location;lat;lon;timestamp;P1;durP1;ratioP1;P2;durP2;ratioP2
74791;SDS011;63319;46.046;17.802;2023-04-06T00:00:05;8.23;;;3.65;;
74791;SDS011;63319;46.046;17.802;2023-04-06T00:03:12;6.53;;;3.60;;
74791;SDS011;63319;46.046;17.802;2023-04-06T00:06:15;6.60;;;3.50;;
74791;SDS011;63319;46.046;17.802;2023-04-06T00:09:19;6.47;;;2.90;;
74791;SDS011;63319;46.046;17.802;2023-04-06T00:12:22;6.40;;;3.97;;
74791;SDS011;63319;46.046;17.802;2023-04-06T00:15:27;6.25;;;3.20;;
74791;SDS011;63319;46.046;17.802;2023-04-06T00:18:30;6.80;;;3.60;;
74791;SDS011;63319;46.046;17.802;2023-04-06T00:21:33;6.67;;;3.20;;
74791;SDS011;63319;46.046;17.802;2023-04-06T00:24:36;6.70;;;3.40;;
74791;SDS011;63319;46.046;17.802;2023-04-06T00:27:39;6.38;;;3.53;;
74791;SDS011;63319;46.046;17.802;2023-04-06T00:30:42;5.97;;;3.20;;
74791;SDS011;63319;46.046;17.802;2023-04-06T00:33:45;7.03;;;3.53;;
74791;SDS011;63319;46.046;17.802;2023-04-06T00:36:49;7.17;;;3.83;;
74791;SDS011;63319;46.046;17.802;2023-04-06T00:39:52;6.68;;;3.45;;
74791;SDS011;63319;46.046;17.802;2023-04-06T00:42:55;6.97;;;3.60;;
74791;SDS011;63319;46.046;17.802;2023-04-06T00:45:58;6.80;;;2.95;;
74791;SDS011;63319;46.046;17.802;2023-04-06T00:49:00;6.70;;;3.50;;
74791;SDS011;63319;46.046;17.802;2023-04-06T00:52:03;5.90;;;2.83;;
74791;SDS011;63319;46.046;17.802;2023-04-06T00:55:06;5.93;;;2.97;;
74791;SDS011;63319;46.046;17.802;2023-04-06T00:58:15;6.32;;;3.30;;
74791;SDS011;63319;46.046;17.802;2023-04-06T01:01:24;6.63;;;3.42;;
74791;SDS011;63319;46.046;17.802;2023-04-06T01:04:29;6.70;;;3.50;;
74791;SDS011;63319;46.046;17.802;2023-04-06T01:07:34;5.83;;;2.90;;
74791;SDS011;63319;46.046;17.802;2023-04-06T01:11:02;6.43;;;3.10;;
74791;SDS011;63319;46.046;17.802;2023-04-06T01:14:05;5.90;;;2.95;;
74791;SDS011;63319;46.046;17.802;2023-04-06T01:17:20;7.25;;;3.30;;
74791;SDS011;63319;46.046;17.802;2023-04-06T01:20:24;5.85;;;3.30;;
74791;SDS011;63319;46.046;17.802;2023-04-06T01:23:27;6.00;;;3.00;;
74791;SDS011;63319;46.046;17.802;2023-04-06T01:26:30;6.10;;;3.33;;
74791;SDS011;63319;46.046;17.802;2023-04-06T01:29:34;6.72;;;3.50;;
74791;SDS011;63319;46.046;17.802;2023-04-06T01:32:40;5.80;;;2.72;;
74791;SDS011;63319;46.046;17.802;2023-04-06T01:35:45;6.63;;;3.22;;
74791;SDS011;63319;46.046;17.802;2023-04-06T01:38:52;6.20;;;3.10;;
74791;SDS011;63319;46.046;17.802;2023-04-06T01:42:04;5.82;;;3.03;;
74791;SDS011;63319;46.046;17.802;2023-04-06T01:45:09;6.15;;;3.15;;
74791;SDS011;63319;46.046;17.802;2023-04-06T01:48:12;5.18;;;3.05;;
74791;SDS011;63319;46.046;17.802;2023-04-06T01:51:15;7.05;;;3.30;;
74791;SDS011;63319;46.046;17.802;2023-04-06T01:54:31;5.30;;;2.90;;
74791;SDS011;63319;46.046;17.802;2023-04-06T01:57:47;5.65;;;2.90;;
74791;SDS011;63319;46.046;17.802;2023-04-06T02:01:02;5.72;;;2.95;;
74791;SDS011;63319;46.046;17.802;2023-04-06T02:04:15;5.10;;;2.75;;
74791;SDS011;63319;46.046;17.802;2023-04-06T02:07:21;6.05;;;3.38;;
74791;SDS011;63319;46.046;17.802;2023-04-06T02:10:24;5.97;;;2.80;;
74791;SDS011;63319;46.046;17.802;2023-04-06T02:13:27;5.70;;;2.70;;
74791;SDS011;63319;46.046;17.802;2023-04-06T02:16:30;5.68;;;3.08;;
74791;SDS011;63319;46.046;17.802;2023-04-06T02:19:34;5.65;;;2.95;;
74791;SDS011;63319;46.046;17.802;2023-04-06T02:22:36;4.95;;;2.72;;
74791;SDS011;63319;46.046;17.802;2023-04-06T02:25:42;5.50;;;2.50;;
74791;SDS011;63319;46.046;17.802;2023-04-06T02:28:45;5.90;;;2.90;;
74791;SDS011;63319;46.046;17.802;2023-04-06T02:31:53;5.72;;;2.92;;
74791;SDS011;63319;46.046;17.802;2023-04-06T02:34:57;5.93;;;2.85;;
74791;SDS011;63319;46.046;17.802;2023-04-06T02:38:00;6.18;;;3.10;;
74791;SDS011;63319;46.046;17.802;2023-04-06T02:41:03;6.70;;;3.23;;
74791;SDS011;63319;46.046;17.802;2023-04-06T02:44:07;5.63;;;2.70;;
74791;SDS011;63319;46.046;17.802;2023-04-06T02:47:19;6.47;;;3.20;;
74791;SDS011;63319;46.046;17.802;2023-04-06T02:50:26;6.70;;;3.33;;
74791;SDS011;63319;46.046;17.802;2023-04-06T02:53:34;4.80;;;2.60;;
74791;SDS011;63319;46.046;17.802;2023-04-06T02:56:37;5.73;;;2.80;;
74791;SDS011;63319;46.046;17.802;2023-04-06T02:59:40;4.88;;;2.65;;
74791;SDS011;63319;46.046;17.802;2023-04-06T03:02:50;5.88;;;3.13;;
74791;SDS011;63319;46.046;17.802;2023-04-06T03:05:53;5.72;;;3.00;;
74791;SDS011;63319;46.046;17.802;2023-04-06T03:09:02;4.97;;;2.42;;
74791;SDS011;63319;46.046;17.802;2023-04-06T03:12:07;5.73;;;3.00;;
74791;SDS011;63319;46.046;17.802;2023-04-06T03:15:31;5.50;;;2.85;;
74791;SDS011;63319;46.046;17.802;2023-04-06T03:18:45;7.30;;;3.13;;
74791;SDS011;63319;46.046;17.802;2023-04-06T03:21:49;6.22;;;3.00;;
74791;SDS011;63319;46.046;17.802;2023-04-06T03:24:53;5.38;;;3.08;;
74791;SDS011;63319;46.046;17.802;2023-04-06T03:27:56;5.37;;;2.50;;
74791;SDS011;63319;46.046;17.802;2023-04-06T03:30:59;5.32;;;2.63;;
74791;SDS011;63319;46.046;17.802;2023-04-06T03:34:21;5.97;;;2.78;;
74791;SDS011;63319;46.046;17.802;2023-04-06T03:37:24;4.97;;;2.35;;
74791;SDS011;63319;46.046;17.802;2023-04-06T03:40:31;5.88;;;2.85;;
74791;SDS011;63319;46.046;17.802;2023-04-06T03:43:33;4.73;;;2.40;;
74791;SDS011;63319;46.046;17.802;2023-04-06T03:46:36;5.13;;;2.53;;
74791;SDS011;63319;46.046;17.802;2023-04-06T03:49:39;5.25;;;2.50;;
74791;SDS011;63319;46.046;17.802;2023-04-06T03:52:45;5.63;;;2.70;;
74791;SDS011;63319;46.046;17.802;2023-04-06T03:55:48;5.28;;;2.95;;
74791;SDS011;63319;46.046;17.802;2023-04-06T03:58:50;4.77;;;2.33;;
74791;SDS011;63319;46.046;17.802;2023-04-06T04:01:56;4.85;;;2.38;;
74791;SDS011;63319;46.046;17.802;2023-04-06T04:05:02;5.93;;;2.92;;
74791;SDS011;63319;46.046;17.802;2023-04-06T04:08:05;4.57;;;2.42;;
74791;SDS011;63319;46.046;17.802;2023-04-06T04:11:08;3.85;;;2.45;;
74791;SDS011;63319;46.046;17.802;2023-04-06T04:14:11;5.47;;;2.80;;
74791;SDS011;63319;46.046;17.802;2023-04-06T04:17:14;5.97;;;2.95;;
74791;SDS011;63319;46.046;17.802;2023-04-06T04:20:17;5.50;;;2.58;;
74791;SDS011;63319;46.046;17.802;2023-04-06T04:23:19;6.30;;;2.60;;
74791;SDS011;63319;46.046;17.802;2023-04-06T04:26:22;5.15;;;2.78;;
74791;SDS011;63319;46.046;17.802;2023-04-06T04:29:25;5.80;;;2.60;;
74791;SDS011;63319;46.046;17.802;2023-04-06T04:32:31;4.90;;;2.50;;
74791;SDS011;63319;46.046;17.802;2023-04-06T04:35:37;5.03;;;2.80;;
74791;SDS011;63319;46.046;17.802;2023-04-06T04:38:41;5.00;;;2.30;;
74791;SDS011;63319;46.046;17.802;2023-04-06T04:41:45;4.82;;;2.80;;
74791;SDS011;63319;46.046;17.802;2023-04-06T04:44:48;5.00;;;2.63;;
74791;SDS011;63319;46.046;17.802;2023-04-06T04:47:59;5.68;;;2.53;;
74791;SDS011;63319;46.046;17.802;2023-04-06T04:51:10;5.80;;;2.88;;
74791;SDS011;63319;46.046;17.802;2023-04-06T04:54:24;5.85;;;2.55;;
74791;SDS011;63319;46.046;17.802;2023-04-06T04:57:27;4.65;;;2.40;;
74791;SDS011;63319;46.046;17.802;2023-04-06T05:00:30;5.10;;;2.50;;
74791;SDS011;63319;46.046;17.802;2023-04-06T05:03:34;5.20;;;2.70;;
74791;SDS011;63319;46.046;17.802;2023-04-06T05:06:43;5.38;;;2.72;;
74791;SDS011;63319;46.046;17.802;2023-04-06T05:09:46;5.10;;;2.60;;
74791;SDS011;63319;46.046;17.802;2023-04-06T05:12:49;5.45;;;2.72;;
74791;SDS011;63319;46.046;17.802;2023-04-06T05:15:52;5.03;;;2.83;;
74791;SDS011;63319;46.046;17.802;2023-04-06T05:18:59;4.53;;;2.33;;
74791;SDS011;63319;46.046;17.802;2023-04-06T05:22:11;5.00;;;2.60;;
74791;SDS011;63319;46.046;17.802;2023-04-06T05:25:18;5.25;;;2.40;;
74791;SDS011;63319;46.046;17.802;2023-04-06T05:28:24;4.50;;;2.20;;
74791;SDS011;63319;46.046;17.802;2023-04-06T05:31:28;4.90;;;2.53;;
74791;SDS011;63319;46.046;17.802;2023-04-06T05:34:32;5.45;;;2.63;;
74791;SDS011;63319;46.046;17.802;2023-04-06T05:37:38;4.78;;;2.80;;
74791;SDS011;63319;46.046;17.802;2023-04-06T05:40:42;4.90;;;2.45;;
74791;SDS011;63319;46.046;17.802;2023-04-06T05:43:49;4.80;;;2.50;;
74791;SDS011;63319;46.046;17.802;2023-04-06T05:46:52;5.37;;;2.60;;
74791;SDS011;63319;46.046;17.802;2023-04-06T05:49:55;5.57;;;2.60;;
74791;SDS011;63319;46.046;17.802;2023-04-06T05:53:07;5.28;;;2.47;;
74791;SDS011;63319;46.046;17.802;2023-04-06T05:56:15;5.18;;;2.45;;
74791;SDS011;63319;46.046;17.802;2023-04-06T05:59:19;5.63;;;2.35;;
74791;SDS011;63319;46.046;17.802;2023-04-06T06:02:23;4.77;;;2.23;;
74791;SDS011;63319;46.046;17.802;2023-04-06T06:05:28;5.28;;;2.70;;
74791;SDS011;63319;46.046;17.802;2023-04-06T06:08:37;5.63;;;2.60;;
74791;SDS011;63319;46.046;17.802;2023-04-06T06:11:46;5.03;;;2.30;;
74791;SDS011;63319;46.046;17.802;2023-04-06T06:14:51;5.22;;;2.35;;
74791;SDS011;63319;46.046;17.802;2023-04-06T06:17:55;5.10;;;2.53;;
74791;SDS011;63319;46.046;17.802;2023-04-06T06:21:00;5.07;;;2.53;;
74791;SDS011;63319;46.046;17.802;2023-04-06T06:24:03;5.13;;;2.38;;
74791;SDS011;63319;46.046;17.802;2023-04-06T06:27:06;4.05;;;1.92;;
74791;SDS011;63319;46.046;17.802;2023-04-06T06:30:12;5.05;;;2.20;;
74791;SDS011;63319;46.046;17.802;2023-04-06T06:33:16;5.53;;;2.60;;
74791;SDS011;63319;46.046;17.802;2023-04-06T06:36:20;5.18;;;2.40;;
74791;SDS011;63319;46.046;17.802;2023-04-06T06:39:24;4.18;;;2.30;;
74791;SDS011;63319;46.046;17.802;2023-04-06T06:42:27;5.43;;;2.53;;
74791;SDS011;63319;46.046;17.802;2023-04-06T06:45:43;5.35;;;2.67;;
74791;SDS011;63319;46.046;17.802;2023-04-06T06:48:48;4.30;;;2.17;;
74791;SDS011;63319;46.046;17.802;2023-04-06T06:51:50;4.93;;;2.45;;
74791;SDS011;63319;46.046;17.802;2023-04-06T06:54:53;5.32;;;2.58;;
74791;SDS011;63319;46.046;17.802;2023-04-06T06:57:58;4.70;;;2.08;;
74791;SDS011;63319;46.046;17.802;2023-04-06T07:01:01;5.05;;;2.30;;
74791;SDS011;63319;46.046;17.802;2023-04-06T07:04:06;4.43;;;2.10;;
74791;SDS011;63319;46.046;17.802;2023-04-06T07:07:10;4.10;;;2.05;;
74791;SDS011;63319;46.046;17.802;2023-04-06T07:10:13;4.68;;;2.60;;
74791;SDS011;63319;46.046;17.802;2023-04-06T07:13:16;4.28;;;2.10;;
74791;SDS011;63319;46.046;17.802;2023-04-06T07:16:32;4.55;;;2.10;;
74791;SDS011;63319;46.046;17.802;2023-04-06T07:19:35;4.60;;;1.97;;
74791;SDS011;63319;46.046;17.802;2023-04-06T07:22:38;5.70;;;2.30;;
74791;SDS011;63319;46.046;17.802;2023-04-06T07:25:42;5.25;;;2.58;;
74791;SDS011;63319;46.046;17.802;2023-04-06T07:28:45;5.00;;;2.40;;
74791;SDS011;63319;46.046;17.802;2023-04-06T07:31:48;5.07;;;2.55;;
74791;SDS011;63319;46.046;17.802;2023-04-06T07:34:51;5.20;;;2.30;;
74791;SDS011;63319;46.046;17.802;2023-04-06T07:37:54;5.18;;;2.35;;
74791;SDS011;63319;46.046;17.802;2023-04-06T07:40:58;5.32;;;2.55;;
74791;SDS011;63319;46.046;17.802;2023-04-06T07:44:00;5.13;;;2.58;;
74791;SDS011;63319;46.046;17.802;2023-04-06T07:47:03;5.43;;;2.60;;
74791;SDS011;63319;46.046;17.802;2023-04-06T07:50:06;5.23;;;2.37;;
74791;SDS011;63319;46.046;17.802;2023-04-06T07:53:10;4.43;;;2.20;;
74791;SDS011;63319;46.046;17.802;2023-04-06T07:56:13;6.43;;;2.97;;
74791;SDS011;63319;46.046;17.802;2023-04-06T07:59:17;8.60;;;2.60;;
74791;SDS011;63319;46.046;17.802;2023-04-06T08:02:20;6.88;;;2.47;;
74791;SDS011;63319;46.046;17.802;2023-04-06T08:05:23;10.00;;;2.23;;
74791;SDS011;63319;46.046;17.802;2023-04-06T08:08:26;8.07;;;2.80;;
74791;SDS011;63319;46.046;17.802;2023-04-06T08:11:29;10.10;;;2.70;;
74791;SDS011;63319;46.046;17.802;2023-04-06T08:14:32;5.43;;;2.42;;
74791;SDS011;63319;46.046;17.802;2023-04-06T08:17:34;7.10;;;3.08;;
74791;SDS011;63319;46.046;17.802;2023-04-06T08:20:38;5.63;;;2.40;;
74791;SDS011;63319;46.046;17.802;2023-04-06T08:23:41;7.57;;;2.15;;
74791;SDS011;63319;46.046;17.802;2023-04-06T08:26:44;8.35;;;2.95;;
74791;SDS011;63319;46.046;17.802;2023-04-06T08:29:47;9.60;;;2.50;;
74791;SDS011;63319;46.046;17.802;2023-04-06T08:32:52;5.40;;;2.53;;
74791;SDS011;63319;46.046;17.802;2023-04-06T08:35:55;5.33;;;2.43;;
74791;SDS011;63319;46.046;17.802;2023-04-06T08:38:58;7.95;;;2.78;;
74791;SDS011;63319;46.046;17.802;2023-04-06T08:42:02;6.22;;;2.45;;
74791;SDS011;63319;46.046;17.802;2023-04-06T08:45:05;6.13;;;2.65;;
74791;SDS011;63319;46.046;17.802;2023-04-06T08:48:08;11.10;;;2.83;;
74791;SDS011;63319;46.046;17.802;2023-04-06T08:51:11;5.83;;;2.33;;
74791;SDS011;63319;46.046;17.802;2023-04-06T08:54:15;9.90;;;2.45;;
74791;SDS011;63319;46.046;17.802;2023-04-06T08:57:18;7.15;;;2.90;;
74791;SDS011;63319;46.046;17.802;2023-04-06T09:00:22;6.55;;;2.30;;
74791;SDS011;63319;46.046;17.802;2023-04-06T09:03:27;9.40;;;2.22;;
74791;SDS011;63319;46.046;17.802;2023-04-06T09:06:32;9.30;;;2.53;;
74791;SDS011;63319;46.046;17.802;2023-04-06T09:09:35;7.32;;;2.40;;
74791;SDS011;63319;46.046;17.802;2023-04-06T09:12:37;7.55;;;2.42;;
74791;SDS011;63319;46.046;17.802;2023-04-06T09:15:40;10.95;;;2.53;;
74791;SDS011;63319;46.046;17.802;2023-04-06T09:18:43;8.63;;;2.67;;
74791;SDS011;63319;46.046;17.802;2023-04-06T09:21:47;8.97;;;2.47;;
74791;SDS011;63319;46.046;17.802;2023-04-06T09:24:50;6.10;;;2.88;;
74791;SDS011;63319;46.046;17.802;2023-04-06T09:27:58;7.38;;;2.42;;
74791;SDS011;63319;46.046;17.802;2023-04-06T09:31:02;9.20;;;2.70;;
74791;SDS011;63319;46.046;17.802;2023-04-06T09:34:05;10.00;;;2.67;;
74791;SDS011;63319;46.046;17.802;2023-04-06T09:40:20;5.45;;;2.17;;
74791;SDS011;63319;46.046;17.802;2023-04-06T09:43:25;7.75;;;3.15;;
74791;SDS011;63319;46.046;17.802;2023-04-06T09:46:30;5.43;;;2.42;;
74791;SDS011;63319;46.046;17.802;2023-04-06T09:49:59;6.50;;;3.17;;
74791;SDS011;63319;46.046;17.802;2023-04-06T09:53:02;5.73;;;2.17;;
74791;SDS011;63319;46.046;17.802;2023-04-06T09:56:06;5.47;;;2.40;;
74791;SDS011;63319;46.046;17.802;2023-04-06T09:59:13;5.88;;;2.70;;
74791;SDS011;63319;46.046;17.802;2023-04-06T10:02:50;8.38;;;2.53;;
74791;SDS011;63319;46.046;17.802;2023-04-06T10:05:57;7.20;;;2.75;;
74791;SDS011;63319;46.046;17.802;2023-04-06T10:09:04;7.73;;;2.67;;
74791;SDS011;63319;46.046;17.802;2023-04-06T10:12:10;7.18;;;2.35;;
74791;SDS011;63319;46.046;17.802;2023-04-06T10:15:14;5.97;;;2.90;;
74791;SDS011;63319;46.046;17.802;2023-04-06T10:18:16;6.35;;;2.42;;
74791;SDS011;63319;46.046;17.802;2023-04-06T10:21:20;4.78;;;2.45;;
74791;SDS011;63319;46.046;17.802;2023-04-06T10:24:26;8.27;;;2.47;;
74791;SDS011;63319;46.046;17.802;2023-04-06T10:27:29;7.75;;;2.60;;
74791;SDS011;63319;46.046;17.802;2023-04-06T10:30:33;6.07;;;2.65;;
74791;SDS011;63319;46.046;17.802;2023-04-06T10:33:37;5.43;;;2.25;;
74791;SDS011;63319;46.046;17.802;2023-04-06T10:36:39;6.13;;;2.50;;
74791;SDS011;63319;46.046;17.802;2023-04-06T10:39:45;8.87;;;2.70;;
74791;SDS011;63319;46.046;17.802;2023-04-06T10:42:49;7.40;;;2.55;;
74791;SDS011;63319;46.046;17.802;2023-04-06T10:45:55;5.18;;;2.35;;
74791;SDS011;63319;46.046;17.802;2023-04-06T10:49:11;5.55;;;2.35;;
74791;SDS011;63319;46.046;17.802;2023-04-06T10:52:15;6.38;;;2.40;;
74791;SDS011;63319;46.046;17.802;2023-04-06T10:55:18;7.37;;;2.40;;
74791;SDS011;63319;46.046;17.802;2023-04-06T10:58:25;6.53;;;2.95;;
74791;SDS011;63319;46.046;17.802;2023-04-06T11:01:30;7.88;;;2.60;;
74791;SDS011;63319;46.046;17.802;2023-04-06T11:04:33;7.63;;;2.67;;
74791;SDS011;63319;46.046;17.802;2023-04-06T11:07:36;5.45;;;2.20;;
74791;SDS011;63319;46.046;17.802;2023-04-06T11:10:39;7.27;;;2.10;;
74791;SDS011;63319;46.046;17.802;2023-04-06T11:13:43;5.55;;;2.20;;
74791;SDS011;63319;46.046;17.802;2023-04-06T11:17:06;5.47;;;2.33;;
74791;SDS011;63319;46.046;17.802;2023-04-06T11:20:10;6.88;;;2.75;;
74791;SDS011;63319;46.046;17.802;2023-04-06T11:23:21;6.28;;;2.70;;
74791;SDS011;63319;46.046;17.802;2023-04-06T11:26:25;8.37;;;2.30;;
74791;SDS011;63319;46.046;17.802;2023-04-06T11:29:28;6.03;;;2.33;;
74791;SDS011;63319;46.046;17.802;2023-04-06T11:32:39;5.38;;;2.20;;
74791;SDS011;63319;46.046;17.802;2023-04-06T11:35:44;6.72;;;2.65;;
74791;SDS011;63319;46.046;17.802;2023-04-06T11:38:48;6.07;;;2.47;;
74791;SDS011;63319;46.046;17.802;2023-04-06T11:41:57;5.83;;;2.43;;
74791;SDS011;63319;46.046;17.802;2023-04-06T11:45:00;5.93;;;2.15;;
74791;SDS011;63319;46.046;17.802;2023-04-06T11:48:03;5.43;;;2.50;;
74791;SDS011;63319;46.046;17.802;2023-04-06T11:51:06;6.90;;;2.45;;
74791;SDS011;63319;46.046;17.802;2023-04-06T11:54:09;5.65;;;2.38;;
74791;SDS011;63319;46.046;17.802;2023-04-06T11:57:12;8.07;;;2.80;;
74791;SDS011;63319;46.046;17.802;2023-04-06T12:00:16;6.22;;;2.38;;
74791;SDS011;63319;46.046;17.802;2023-04-06T12:03:19;6.80;;;2.35;;
74791;SDS011;63319;46.046;17.802;2023-04-06T12:06:22;6.50;;;2.53;;
74791;SDS011;63319;46.046;17.802;2023-04-06T12:09:25;5.75;;;2.63;;
74791;SDS011;63319;46.046;17.802;2023-04-06T12:12:28;5.17;;;2.40;;
74791;SDS011;63319;46.046;17.802;2023-04-06T12:15:31;5.95;;;2.30;;
74791;SDS011;63319;46.046;17.802;2023-04-06T12:18:33;8.13;;;2.85;;
74791;SDS011;63319;46.046;17.802;2023-04-06T12:21:36;5.30;;;2.28;;
74791;SDS011;63319;46.046;17.802;2023-04-06T12:24:39;6.03;;;2.47;;
74791;SDS011;63319;46.046;17.802;2023-04-06T12:27:42;6.00;;;2.30;;
74791;SDS011;63319;46.046;17.802;2023-04-06T12:30:46;5.38;;;2.38;;
74791;SDS011;63319;46.046;17.802;2023-04-06T12:33:50;7.57;;;2.70;;
74791;SDS011;63319;46.046;17.802;2023-04-06T12:36:53;5.10;;;2.25;;
74791;SDS011;63319;46.046;17.802;2023-04-06T12:39:56;6.68;;;2.38;;
74791;SDS011;63319;46.046;17.802;2023-04-06T12:42:59;5.73;;;2.47;;
74791;SDS011;63319;46.046;17.802;2023-04-06T12:46:02;5.35;;;2.22;;
74791;SDS011;63319;46.046;17.802;2023-04-06T12:49:05;4.97;;;2.20;;
74791;SDS011;63319;46.046;17.802;2023-04-06T12:52:08;5.18;;;2.25;;
74791;SDS011;63319;46.046;17.802;2023-04-06T12:55:13;6.20;;;2.35;;
74791;SDS011;63319;46.046;17.802;2023-04-06T12:58:15;6.87;;;2.80;;
74791;SDS011;63319;46.046;17.802;2023-04-06T13:01:21;5.43;;;2.25;;
74791;SDS011;63319;46.046;17.802;2023-04-06T13:04:24;8.00;;;3.00;;
74791;SDS011;63319;46.046;17.802;2023-04-06T13:07:26;6.50;;;2.45;;
74791;SDS011;63319;46.046;17.802;2023-04-06T13:10:32;6.38;;;2.45;;
74791;SDS011;63319;46.046;17.802;2023-04-06T13:13:35;6.27;;;2.27;;
74791;SDS011;63319;46.046;17.802;2023-04-06T13:16:39;4.85;;;2.20;;
74791;SDS011;63319;46.046;17.802;2023-04-06T13:19:41;6.13;;;2.47;;
74791;SDS011;63319;46.046;17.802;2023-04-06T13:22:44;5.75;;;2.35;;
74791;SDS011;63319;46.046;17.802;2023-04-06T13:25:47;6.60;;;2.63;;
74791;SDS011;63319;46.046;17.802;2023-04-06T13:28:50;5.23;;;2.00;;
74791;SDS011;63319;46.046;17.802;2023-04-06T13:31:53;5.85;;;2.35;;
74791;SDS011;63319;46.046;17.802;2023-04-06T13:34:56;6.35;;;2.30;;
74791;SDS011;63319;46.046;17.802;2023-04-06T13:38:00;5.72;;;2.33;;
74791;SDS011;63319;46.046;17.802;2023-04-06T13:41:02;5.63;;;2.30;;
74791;SDS011;63319;46.046;17.802;2023-04-06T13:44:06;6.40;;;1.90;;
74791;SDS011;63319;46.046;17.802;2023-04-06T13:47:09;5.18;;;2.20;;
74791;SDS011;63319;46.046;17.802;2023-04-06T13:50:12;5.57;;;2.30;;
74791;SDS011;63319;46.046;17.802;2023-04-06T13:53:16;5.40;;;2.30;;
74791;SDS011;63319;46.046;17.802;2023-04-06T13:56:19;5.07;;;1.92;;
74791;SDS011;63319;46.046;17.802;2023-04-06T13:59:22;4.17;;;2.07;;
74791;SDS011;63319;46.046;17.802;2023-04-06T14:02:25;5.50;;;2.38;;
74791;SDS011;63319;46.046;17.802;2023-04-06T14:05:32;6.50;;;2.53;;
74791;SDS011;63319;46.046;17.802;2023-04-06T14:08:36;4.75;;;2.20;;
74791;SDS011;63319;46.046;17.802;2023-04-06T14:11:38;6.05;;;2.10;;
74791;SDS011;63319;46.046;17.802;2023-04-06T14:14:41;4.63;;;1.93;;
74791;SDS011;63319;46.046;17.802;2023-04-06T14:17:44;5.72;;;1.92;;
74791;SDS011;63319;46.046;17.802;2023-04-06T14:20:54;5.63;;;2.05;;
74791;SDS011;63319;46.046;17.802;2023-04-06T14:23:58;5.25;;;2.20;;
74791;SDS011;63319;46.046;17.802;2023-04-06T14:27:01;5.20;;;2.13;;
74791;SDS011;63319;46.046;17.802;2023-04-06T14:30:05;5.83;;;2.40;;
74791;SDS011;63319;46.046;17.802;2023-04-06T14:33:11;5.53;;;2.00;;
74791;SDS011;63319;46.046;17.802;2023-04-06T14:36:14;5.05;;;2.50;;
74791;SDS011;63319;46.046;17.802;2023-04-06T14:39:17;6.90;;;2.10;;
74791;SDS011;63319;46.046;17.802;2023-04-06T14:42:20;6.82;;;2.35;;
74791;SDS011;63319;46.046;17.802;2023-04-06T14:45:23;5.87;;;2.53;;
74791;SDS011;63319;46.046;17.802;2023-04-06T14:48:26;5.20;;;1.95;;
74791;SDS011;63319;46.046;17.802;2023-04-06T14:51:30;5.85;;;2.45;;
74791;SDS011;63319;46.046;17.802;2023-04-06T14:54:33;4.70;;;2.25;;
74791;SDS011;63319;46.046;17.802;2023-04-06T14:57:35;5.25;;;2.10;;
74791;SDS011;63319;46.046;17.802;2023-04-06T15:00:39;5.60;;;2.10;;
74791;SDS011;63319;46.046;17.802;2023-04-06T15:03:42;5.20;;;2.20;;
74791;SDS011;63319;46.046;17.802;2023-04-06T15:06:45;4.78;;;2.17;;
74791;SDS011;63319;46.046;17.802;2023-04-06T15:09:48;4.82;;;2.20;;
74791;SDS011;63319;46.046;17.802;2023-04-06T15:12:52;4.90;;;2.33;;
74791;SDS011;63319;46.046;17.802;2023-04-06T15:15:54;5.37;;;2.53;;
74791;SDS011;63319;46.046;17.802;2023-04-06T15:18:58;6.10;;;2.38;;
74791;SDS011;63319;46.046;17.802;2023-04-06T15:22:01;5.22;;;2.25;;
74791;SDS011;63319;46.046;17.802;2023-04-06T15:25:04;5.40;;;2.60;;
74791;SDS011;63319;46.046;17.802;2023-04-06T15:28:07;5.88;;;2.20;;
74791;SDS011;63319;46.046;17.802;2023-04-06T15:31:15;5.13;;;2.20;;
74791;SDS011;63319;46.046;17.802;2023-04-06T15:34:38;5.35;;;2.33;;
74791;SDS011;63319;46.046;17.802;2023-04-06T15:37:41;4.72;;;2.17;;
74791;SDS011;63319;46.046;17.802;2023-04-06T15:40:45;4.55;;;2.08;;
74791;SDS011;63319;46.046;17.802;2023-04-06T15:43:49;4.93;;;2.38;;
74791;SDS011;63319;46.046;17.802;2023-04-06T15:46:53;4.77;;;2.10;;
74791;SDS011;63319;46.046;17.802;2023-04-06T15:49:55;4.72;;;2.08;;
74791;SDS011;63319;46.046;17.802;2023-04-06T15:52:58;6.15;;;2.17;;
74791;SDS011;63319;46.046;17.802;2023-04-06T15:56:02;4.53;;;2.10;;
74791;SDS011;63319;46.046;17.802;2023-04-06T15:59:07;6.50;;;2.38;;
74791;SDS011;63319;46.046;17.802;2023-04-06T16:02:10;3.67;;;1.90;;
74791;SDS011;63319;46.046;17.802;2023-04-06T16:05:14;4.03;;;1.77;;
74791;SDS011;63319;46.046;17.802;2023-04-06T16:08:16;4.88;;;2.33;;
74791;SDS011;63319;46.046;17.802;2023-04-06T16:11:20;4.60;;;2.05;;
74791;SDS011;63319;46.046;17.802;2023-04-06T16:14:23;5.45;;;2.40;;
74791;SDS011;63319;46.046;17.802;2023-04-06T16:17:26;3.63;;;1.70;;
74791;SDS011;63319;46.046;17.802;2023-04-06T16:20:29;4.93;;;2.10;;
74791;SDS011;63319;46.046;17.802;2023-04-06T16:23:33;4.68;;;2.22;;
74791;SDS011;63319;46.046;17.802;2023-04-06T16:26:36;4.70;;;1.95;;
74791;SDS011;63319;46.046;17.802;2023-04-06T16:29:38;4.97;;;2.45;;
74791;SDS011;63319;46.046;17.802;2023-04-06T16:32:45;4.07;;;1.87;;
74791;SDS011;63319;46.046;17.802;2023-04-06T16:35:50;4.50;;;1.90;;
74791;SDS011;63319;46.046;17.802;2023-04-06T16:38:56;4.88;;;2.13;;
74791;SDS011;63319;46.046;17.802;2023-04-06T16:42:00;4.60;;;2.08;;
74791;SDS011;63319;46.046;17.802;2023-04-06T16:45:13;4.75;;;1.90;;
74791;SDS011;63319;46.046;17.802;2023-04-06T16:48:17;4.70;;;2.00;;
74791;SDS011;63319;46.046;17.802;2023-04-06T16:51:19;4.93;;;2.20;;
74791;SDS011;63319;46.046;17.802;2023-04-06T16:54:22;4.93;;;2.13;;
74791;SDS011;63319;46.046;17.802;2023-04-06T16:57:25;4.53;;;2.20;;
74791;SDS011;63319;46.046;17.802;2023-04-06T17:00:31;4.85;;;2.15;;
74791;SDS011;63319;46.046;17.802;2023-04-06T17:03:33;4.67;;;2.20;;
74791;SDS011;63319;46.046;17.802;2023-04-06T17:06:36;5.32;;;2.20;;
74791;SDS011;63319;46.046;17.802;2023-04-06T17:09:39;4.00;;;2.00;;
74791;SDS011;63319;46.046;17.802;2023-04-06T17:12:43;4.75;;;2.42;;
74791;SDS011;63319;46.046;17.802;2023-04-06T17:15:47;5.57;;;2.10;;
74791;SDS011;63319;46.046;17.802;2023-04-06T17:18:51;4.47;;;2.20;;
74791;SDS011;63319;46.046;17.802;2023-04-06T17:21:54;4.25;;;2.08;;
74791;SDS011;63319;46.046;17.802;2023-04-06T17:24:57;5.47;;;2.30;;
74791;SDS011;63319;46.046;17.802;2023-04-06T17:28:00;5.00;;;2.10;;
74791;SDS011;63319;46.046;17.802;2023-04-06T17:31:06;5.07;;;2.15;;
74791;SDS011;63319;46.046;17.802;2023-04-06T17:34:12;4.40;;;2.00;;
74791;SDS011;63319;46.046;17.802;2023-04-06T17:37:15;4.82;;;2.40;;
74791;SDS011;63319;46.046;17.802;2023-04-06T17:40:18;4.97;;;2.08;;
74791;SDS011;63319;46.046;17.802;2023-04-06T17:43:21;5.47;;;2.33;;
74791;SDS011;63319;46.046;17.802;2023-04-06T17:46:24;5.03;;;2.20;;
74791;SDS011;63319;46.046;17.802;2023-04-06T17:49:26;6.33;;;2.27;;
74791;SDS011;63319;46.046;17.802;2023-04-06T17:52:29;4.93;;;2.25;;
74791;SDS011;63319;46.046;17.802;2023-04-06T17:55:33;7.82;;;2.30;;
74791;SDS011;63319;46.046;17.802;2023-04-06T17:58:37;4.72;;;2.10;;
74791;SDS011;63319;46.046;17.802;2023-04-06T18:01:41;5.35;;;2.38;;
74791;SDS011;63319;46.046;17.802;2023-04-06T18:04:44;5.73;;;2.10;;
74791;SDS011;63319;46.046;17.802;2023-04-06T18:07:46;4.68;;;2.03;;
74791;SDS011;63319;46.046;17.802;2023-04-06T18:11:00;5.82;;;2.20;;
74791;SDS011;63319;46.046;17.802;2023-04-06T18:14:08;5.40;;;2.45;;
74791;SDS011;63319;46.046;17.802;2023-04-06T18:17:13;6.28;;;2.42;;